Time;durP1;ratioP1;P1;durP2;ratioP2;P2;SDS_P1;SDS_P2;PMS_P1;PMS_P2;Temp;Humidity;BMP_temperature;BMP_pressure;BME280_temperature;BME280_humidity;BME280_pressure;Samples;Min_cycle;Max_cycle;Signal;HPM_P1;HPM_P2
2023/06/20 00:01:50;;;;;;;69.87;6.13;;;25.30;1.00;;;;;;5062871;28;20184;-80
2023/06/20 00:04:16;;;;;;;71.90;5.67;;;25.30;1.00;;;;;;5062913;28;20585;-80
2023/06/20 00:06:42;;;;;;;71.00;6.13;;;25.30;1.00;;;;;;5062767;28;20172;-80
2023/06/20 00:09:07;;;;;;;72.97;5.60;;;25.30;1.00;;;;;;5062684;28;20165;-80
2023/06/20 00:11:33;;;;;;;71.90;6.10;;;25.30;1.00;;;;;;5063096;28;20619;-80
2023/06/20 00:13:59;;;;;;;72.27;6.20;;;25.30;1.00;;;;;;5062909;28;20620;-80
2023/06/20 00:16:24;;;;;;;70.77;6.53;;;25.30;1.00;;;;;;5062681;28;20225;-80
2023/06/20 00:18:53;;;;;;;71.40;6.43;;;25.20;1.00;;;;;;5044482;28;20709;-80
2023/06/20 00:21:21;;;;;;;71.67;6.07;;;25.20;1.00;;;;;;5062065;28;20185;-80
2023/06/20 00:23:47;;;;;;;71.90;6.70;;;25.20;1.00;;;;;;5062586;28;20399;-80
2023/06/20 00:26:13;;;;;;;71.90;6.93;;;25.20;1.00;;;;;;5062944;28;20494;-80
2023/06/20 00:28:38;;;;;;;71.27;6.47;;;25.20;1.00;;;;;;5062673;28;20446;-81
2023/06/20 00:31:04;;;;;;;71.17;6.97;;;25.10;1.00;;;;;;5062032;28;20168;-81
2023/06/20 00:33:30;;;;;;;71.87;10.30;;;25.10;1.00;;;;;;5062613;28;20164;-81
2023/06/20 00:35:56;;;;;;;72.97;10.20;;;25.00;1.00;;;;;;5062366;28;20847;-81
2023/06/20 00:38:21;;;;;;;74.10;12.57;;;25.10;1.00;;;;;;5062363;28;20192;-81
2023/06/20 00:40:49;;;;;;;75.20;15.10;;;24.90;1.00;;;;;;5061802;28;20169;-81
2023/06/20 00:43:15;;;;;;;73.77;13.37;;;24.90;1.00;;;;;;5044561;28;20180;-81
2023/06/20 00:45:40;;;;;;;70.70;9.60;;;24.80;1.00;;;;;;5062646;28;20402;-81
2023/06/20 00:48:07;;;;;;;71.57;9.20;;;24.80;1.00;;;;;;5062056;28;20697;-81
2023/06/20 00:50:34;;;;;;;73.30;11.37;;;24.80;1.00;;;;;;5061951;28;20172;-81
2023/06/20 00:53:05;;;;;;;73.60;12.37;;;24.80;1.00;;;;;;5061687;28;20426;-81
2023/06/20 00:55:33;;;;;;;73.40;13.07;;;24.80;1.00;;;;;;5061954;28;20435;-81
2023/06/20 00:58:03;;;;;;;73.73;13.40;;;24.80;1.00;;;;;;5061410;28;20464;-81
2023/06/20 01:00:32;;;;;;;72.93;13.43;;;24.80;1.00;;;;;;5062497;28;20422;-81
2023/06/20 01:03:01;;;;;;;74.70;13.20;;;24.80;1.00;;;;;;5062342;28;20462;-81
2023/06/20 01:05:29;;;;;;;73.80;13.80;;;24.80;1.00;;;;;;5044105;28;20444;-81
2023/06/20 01:08:16;;;;;;;73.60;13.23;;;24.80;1.00;;;;;;5062297;28;20772;-81
2023/06/20 01:11:28;;;;;;;73.07;12.90;;;24.80;1.00;;;;;;5062111;28;20473;-81
2023/06/20 01:14:15;;;;;;;75.43;12.40;;;24.70;1.00;;;;;;5062227;28;20428;-81
2023/06/20 01:17:17;;;;;;;74.30;11.73;;;24.60;1.00;;;;;;5062320;28;20385;-80
2023/06/20 01:19:54;;;;;;;73.40;13.23;;;24.60;1.00;;;;;;5061938;28;20378;-80
2023/06/20 01:22:44;;;;;;;72.37;13.07;;;24.60;1.00;;;;;;5061784;28;20434;-80
2023/06/20 01:25:18;;;;;;;75.37;14.57;;;24.70;1.00;;;;;;5061381;28;20386;-80
2023/06/20 01:28:28;;;;;;;77.87;13.80;;;24.70;1.00;;;;;;5061355;28;20493;-81
2023/06/20 01:31:11;;;;;;;72.27;14.10;;;24.60;1.00;;;;;;5061177;28;20785;-81
2023/06/20 01:34:07;;;;;;;74.67;13.00;;;24.60;1.00;;;;;;5061903;28;20386;-81
2023/06/20 01:36:38;;;;;;;74.90;14.07;;;24.50;1.00;;;;;;5055235;28;20421;-81
2023/06/20 01:39:11;;;;;;;72.30;14.13;;;24.30;1.00;;;;;;5061462;28;20474;-81
2023/06/20 01:41:41;;;;;;;72.80;15.93;;;24.40;3.30;;;;;;5060976;28;20885;-81
2023/06/20 01:44:11;;;;;;;74.07;14.30;;;24.30;2.00;;;;;;5060869;28;20402;-81
2023/06/20 01:46:37;;;;;;;74.07;17.33;;;24.30;4.80;;;;;;5062136;28;20392;-81
2023/06/20 01:49:04;;;;;;;74.37;14.47;;;24.30;3.40;;;;;;5061367;28;20406;-81
2023/06/20 01:51:31;;;;;;;76.77;23.07;;;24.30;5.70;;;;;;5061430;28;20241;-81
2023/06/20 01:53:57;;;;;;;76.53;21.70;;;24.30;7.90;;;;;;5043342;28;20426;-81
2023/06/20 01:56:27;;;;;;;77.00;18.90;;;24.40;7.40;;;;;;5061051;28;20418;-81
2023/06/20 01:58:54;;;;;;;77.00;22.67;;;24.40;7.90;;;;;;5043360;28;20442;-80
2023/06/20 02:01:21;;;;;;;74.90;18.93;;;24.40;12.70;;;;;;5061159;28;20454;-80
2023/06/20 02:03:49;;;;;;;74.93;18.20;;;24.40;11.70;;;;;;5042771;28;20407;-81
2023/06/20 02:06:16;;;;;;;76.00;22.63;;;24.40;13.90;;;;;;5042986;28;20409;-81
2023/06/20 02:08:42;;;;;;;76.43;17.70;;;24.40;15.20;;;;;;5060862;28;20414;-81
2023/06/20 02:11:09;;;;;;;75.30;23.13;;;24.30;18.80;;;;;;5060753;28;20465;-80
2023/06/20 02:13:36;;;;;;;73.80;18.70;;;24.20;21.40;;;;;;5061289;28;20403;-81
2023/06/20 02:16:06;;;;;;;75.80;22.33;;;24.10;24.00;;;;;;5060879;28;20497;-81
2023/06/20 02:18:32;;;;;;;76.23;18.80;;;24.10;22.40;;;;;;5042454;28;20424;-81
2023/06/20 02:21:04;;;;;;;76.80;22.43;;;23.90;29.40;;;;;;5060906;28;20444;-81
2023/06/20 02:23:31;;;;;;;74.43;23.47;;;23.80;36.00;;;;;;5059972;28;20285;-80
2023/06/20 02:26:10;;;;;;;74.13;22.33;;;23.80;34.10;;;;;;5060787;28;20435;-80
2023/06/20 02:28:46;;;;;;;74.83;22.13;;;23.70;34.60;;;;;;5042548;28;20433;-81
2023/06/20 02:31:16;;;;;;;73.90;18.33;;;23.60;39.90;;;;;;5060294;28;20472;-81
2023/06/20 02:33:44;;;;;;;76.77;26.33;;;23.60;36.00;;;;;;5060498;28;20470;-81
2023/06/20 02:36:12;;;;;;;80.17;30.87;;;23.70;41.60;;;;;;5060263;28;20405;-81
2023/06/20 02:38:38;;;;;;;79.30;35.50;;;23.70;36.30;;;;;;5042896;28;20425;-81
2023/06/20 02:41:05;;;;;;;77.20;30.70;;;23.80;36.40;;;;;;5060443;28;20503;-81
2023/06/20 02:43:30;;;;;;;82.37;40.17;;;23.90;36.20;;;;;;5060152;28;20172;-81
2023/06/20 02:46:09;;;;;;;85.10;45.17;;;23.90;38.90;;;;;;5041969;28;20406;-81
2023/06/20 02:48:48;;;;;;;84.40;47.40;;;23.90;38.70;;;;;;5059535;28;20210;-81
2023/06/20 02:51:23;;;;;;;89.23;54.33;;;23.90;45.50;;;;;;5041890;28;20466;-81
2023/06/20 02:54:14;;;;;;;84.93;48.43;;;23.90;45.90;;;;;;5042079;28;20430;-81
2023/06/20 02:56:43;;;;;;;84.87;46.47;;;23.90;46.10;;;;;;5040422;28;20408;-81
2023/06/20 02:59:10;;;;;;;84.97;47.53;;;23.90;43.80;;;;;;5059977;28;20472;-81
2023/06/20 03:01:39;;;;;;;83.43;49.73;;;24.00;44.40;;;;;;5058922;28;20463;-81
2023/06/20 03:04:06;;;;;;;87.40;45.80;;;24.00;45.00;;;;;;5042006;28;20433;-81
2023/06/20 03:06:34;;;;;;;87.03;55.47;;;23.90;45.50;;;;;;5042043;28;20405;-81
2023/06/20 03:09:02;;;;;;;87.10;56.17;;;23.90;47.80;;;;;;5060002;28;20404;-81
2023/06/20 03:11:28;;;;;;;85.27;52.07;;;23.90;51.20;;;;;;5059159;28;20412;-81
2023/06/20 03:13:54;;;;;;;82.63;46.13;;;23.90;49.80;;;;;;5059749;28;20416;-81
2023/06/20 03:16:20;;;;;;;83.17;49.77;;;23.90;52.00;;;;;;5041746;28;20412;-81
2023/06/20 03:18:48;;;;;;;85.63;50.43;;;23.90;53.60;;;;;;5060050;28;20654;-81
2023/06/20 03:21:14;;;;;;;84.50;50.17;;;23.90;52.90;;;;;;5059913;28;20239;-81
2023/06/20 03:23:40;;;;;;;83.57;48.93;;;23.90;55.10;;;;;;5060455;28;20399;-81
2023/06/20 03:26:06;;;;;;;83.77;45.00;;;23.80;56.60;;;;;;5060041;28;20165;-81
2023/06/20 03:28:32;;;;;;;85.03;43.13;;;23.80;57.50;;;;;;5059728;28;20503;-81
2023/06/20 03:30:58;;;;;;;82.30;43.00;;;23.90;56.00;;;;;;5041317;28;20650;-81
2023/06/20 03:33:26;;;;;;;83.60;46.40;;;23.70;62.40;;;;;;5058974;28;20414;-81
2023/06/20 03:35:52;;;;;;;83.80;44.47;;;23.60;74.60;;;;;;5059029;28;20165;-81
2023/06/20 03:38:17;;;;;;;86.70;46.87;;;23.50;69.20;;;;;;5059452;28;20454;-81
2023/06/20 03:40:43;;;;;;;83.93;47.27;;;23.60;66.60;;;;;;5041263;28;20509;-81
2023/06/20 03:43:09;;;;;;;86.20;52.27;;;23.60;67.20;;;;;;5059528;28;20161;-81
2023/06/20 03:45:35;;;;;;;85.37;49.60;;;23.60;70.50;;;;;;5059952;28;20171;-81
2023/06/20 03:48:00;;;;;;;85.77;49.13;;;23.60;67.10;;;;;;5059572;28;20447;-81
2023/06/20 03:50:26;;;;;;;86.13;48.77;;;23.60;69.70;;;;;;5059615;28;20244;-81
2023/06/20 03:52:52;;;;;;;86.27;52.20;;;23.50;70.60;;;;;;5059538;28;20169;-81
2023/06/20 03:55:17;;;;;;;94.83;67.60;;;23.50;72.20;;;;;;5059683;28;20188;-81
2023/06/20 03:57:43;;;;;;;87.73;55.33;;;23.50;72.60;;;;;;5059165;28;20190;-81
2023/06/20 04:00:12;;;;;;;86.00;52.17;;;23.50;72.00;;;;;;5059301;28;20181;-81
2023/06/20 04:02:41;;;;;;;84.37;50.47;;;23.50;71.40;;;;;;5059654;28;20186;-81
2023/06/20 04:06:42;;;;;;;;;;;;;;;;;;;;;
2023/06/20 04:09:25;;;;;;;81.30;42.93;;;23.60;71.00;;;;;;4978627;28;20436;-84
2023/06/20 04:12:16;;;;;;;85.00;50.50;;;23.60;74.50;;;;;;4996832;28;20504;-83
2023/06/20 04:14:57;;;;;;;83.50;47.63;;;23.50;77.50;;;;;;4996323;28;20470;-84
2023/06/20 04:18:16;;;;;;;86.70;54.30;;;23.40;89.60;;;;;;4979840;28;20430;-84
2023/06/20 04:20:50;;;;;;;81.23;44.37;;;23.20;91.40;;;;;;5066980;28;20405;-83
2023/06/20 04:27:41;;;;;;;82.70;43.13;;;23.20;87.00;;;;;;5074132;28;20444;-83
2023/06/20 04:30:15;;;;;;;85.47;45.83;;;23.30;84.20;;;;;;5071416;28;20472;-82
2023/06/20 04:33:33;;;;;;;87.53;56.00;;;23.40;80.50;;;;;;5079321;28;20394;-81
2023/06/20 04:36:19;;;;;;;86.00;51.83;;;23.40;83.70;;;;;;5033090;28;20442;-81
2023/06/20 04:39:11;;;;;;;85.60;54.83;;;23.40;85.40;;;;;;5084349;28;20417;-81
2023/06/20 04:41:48;;;;;;;82.03;46.50;;;23.40;83.00;;;;;;5082975;28;21040;-81
2023/06/20 04:44:39;;;;;;;87.37;54.57;;;23.40;85.90;;;;;;5082853;28;20387;-82
2023/06/20 04:47:17;;;;;;;86.67;51.50;;;23.40;85.50;;;;;;5086013;28;20429;-81
2023/06/20 04:50:03;;;;;;;89.70;64.40;;;23.40;90.50;;;;;;5088117;28;20729;-81
2023/06/20 04:52:55;;;;;;;89.90;63.77;;;23.40;92.10;;;;;;5083891;28;20395;-81
2023/06/20 04:55:21;;;;;;;85.07;55.07;;;23.40;92.30;;;;;;5081572;28;20387;-82
2023/06/20 04:57:50;;;;;;;83.47;46.43;;;23.60;87.50;;;;;;5065134;28;20490;-82
2023/06/20 05:00:16;;;;;;;84.80;54.63;;;23.60;90.10;;;;;;5083760;28;20169;-83
2023/06/20 05:02:42;;;;;;;81.67;41.80;;;23.60;88.80;;;;;;5084173;28;20951;-83
2023/06/20 05:05:09;;;;;;;79.77;33.27;;;23.80;88.30;;;;;;5068938;28;20439;-83
2023/06/20 05:07:34;;;;;;;77.47;30.03;;;23.80;81.10;;;;;;5069351;28;20454;-83
2023/06/20 05:10:00;;;;;;;77.80;32.97;;;23.80;75.00;;;;;;5069691;28;20411;-83
2023/06/20 05:12:26;;;;;;;79.80;36.37;;;23.80;79.10;;;;;;5088332;28;20470;-83
2023/06/20 05:14:52;;;;;;;77.10;33.40;;;23.70;78.90;;;;;;5088558;28;20532;-83
2023/06/20 05:17:17;;;;;;;80.47;40.23;;;23.80;77.40;;;;;;5087461;28;20181;-83
2023/06/20 05:19:43;;;;;;;79.20;35.57;;;23.90;76.00;;;;;;5087212;28;20159;-83
2023/06/20 05:22:09;;;;;;;83.73;43.80;;;23.80;78.50;;;;;;5086348;28;20224;-84
2023/06/20 05:24:34;;;;;;;83.83;49.60;;;23.40;88.10;;;;;;5070559;28;20252;-83
2023/06/20 05:27:00;;;;;;;83.07;45.20;;;23.40;86.80;;;;;;5086126;28;20261;-83
2023/06/20 05:29:26;;;;;;;80.80;38.67;;;23.70;81.30;;;;;;5084151;28;20170;-83
2023/06/20 05:31:51;;;;;;;80.67;38.90;;;23.80;79.00;;;;;;5084473;28;20311;-83
2023/06/20 05:34:17;;;;;;;80.83;39.70;;;23.80;79.00;;;;;;5084486;28;20163;-83
2023/06/20 05:36:43;;;;;;;80.77;40.30;;;23.90;74.70;;;;;;5083959;28;20170;-83
2023/06/20 05:39:09;;;;;;;79.67;35.07;;;24.00;73.90;;;;;;5066276;28;20177;-83
2023/06/20 05:41:36;;;;;;;81.93;36.10;;;24.00;72.00;;;;;;5085555;28;20186;-83
2023/06/20 05:44:02;;;;;;;81.97;35.80;;;23.90;73.10;;;;;;5063728;28;20940;-83
2023/06/20 05:46:28;;;;;;;81.03;35.80;;;23.80;74.50;;;;;;5083280;28;20444;-83
2023/06/20 05:48:59;;;;;;;83.57;42.57;;;23.80;75.30;;;;;;5079990;28;20423;-83
2023/06/20 05:51:29;;;;;;;84.40;43.87;;;23.70;78.40;;;;;;5062414;28;20625;-83
2023/06/20 05:53:57;;;;;;;83.23;43.37;;;23.70;82.50;;;;;;5062651;28;20478;-83
2023/06/20 05:56:23;;;;;;;81.60;39.23;;;23.70;84.50;;;;;;5064466;28;20427;-83
2023/06/20 05:58:52;;;;;;;83.80;45.30;;;23.80;80.90;;;;;;5081030;28;20475;-83
2023/06/20 06:01:17;;;;;;;81.97;37.23;;;23.90;81.40;;;;;;5081684;28;20469;-83
2023/06/20 06:03:43;;;;;;;81.30;39.40;;;24.00;79.50;;;;;;5081650;28;20483;-83
2023/06/20 06:06:10;;;;;;;81.80;39.20;;;24.10;77.40;;;;;;5081650;28;20239;-83
2023/06/20 06:08:36;;;;;;;81.03;35.13;;;24.00;71.70;;;;;;5081792;28;20187;-83
2023/06/20 06:11:02;;;;;;;82.27;39.40;;;23.90;71.90;;;;;;5063343;28;20461;-83
2023/06/20 06:13:28;;;;;;;81.60;42.50;;;23.70;78.90;;;;;;5084369;28;20397;-82
2023/06/20 06:15:53;;;;;;;81.17;41.73;;;23.70;74.80;;;;;;5067245;28;20176;-83
2023/06/20 06:18:19;;;;;;;82.83;40.63;;;23.60;71.50;;;;;;5083347;28;20416;-82
2023/06/20 06:20:45;;;;;;;82.73;42.60;;;23.60;70.30;;;;;;5080679;28;20167;-82
2023/06/20 06:23:11;;;;;;;81.47;40.47;;;23.70;63.10;;;;;;5065586;28;20177;-82
2023/06/20 06:25:36;;;;;;;84.43;40.50;;;23.60;60.10;;;;;;5083970;28;20947;-82
2023/06/20 06:28:02;;;;;;;82.83;45.03;;;23.60;61.90;;;;;;5088929;28;20186;-82
2023/06/20 06:30:28;;;;;;;86.87;48.40;;;23.80;59.10;;;;;;5074439;28;20192;-82
2023/06/20 06:32:53;;;;;;;84.03;44.47;;;23.80;59.70;;;;;;5089989;28;20165;-83
2023/06/20 06:35:22;;;;;;;84.23;48.63;;;23.90;62.60;;;;;;5089560;28;20180;-83
2023/06/20 06:37:48;;;;;;;82.37;43.27;;;23.90;65.70;;;;;;5089390;28;20202;-83
2023/06/20 06:40:14;;;;;;;82.47;44.63;;;23.90;63.20;;;;;;5072483;28;20424;-83
2023/06/20 06:42:40;;;;;;;85.43;49.77;;;23.90;59.60;;;;;;5071896;28;20196;-83
2023/06/20 06:45:06;;;;;;;83.63;45.77;;;24.00;59.90;;;;;;5071377;28;20194;-83
2023/06/20 06:47:34;;;;;;;87.47;48.37;;;24.00;57.70;;;;;;5089243;28;20185;-83
2023/06/20 06:49:59;;;;;;;85.70;51.20;;;23.90;56.30;;;;;;5088786;28;20404;-83
2023/06/20 06:52:25;;;;;;;84.63;47.70;;;23.90;62.20;;;;;;5088295;28;20402;-83
2023/06/20 06:54:51;;;;;;;84.10;52.80;;;23.90;59.80;;;;;;5087742;28;20173;-83
2023/06/20 06:57:16;;;;;;;87.63;55.20;;;23.90;66.60;;;;;;5087250;28;20236;-83
2023/06/20 06:59:42;;;;;;;86.77;57.73;;;23.90;67.20;;;;;;5087686;28;20173;-82
2023/06/20 07:02:08;;;;;;;84.80;48.57;;;23.90;66.80;;;;;;5087843;28;20255;-83
2023/06/20 07:04:54;;;;;;;85.17;53.03;;;24.00;61.10;;;;;;5152313;22;20229;-85
2023/06/20 07:07:28;;;;;;;85.90;54.23;;;24.00;57.30;;;;;;5077671;28;20255;-84
2023/06/20 07:09:54;;;;;;;86.87;46.67;;;24.20;61.40;;;;;;5078652;28;20384;-84
2023/06/20 07:12:23;;;;;;;91.30;63.20;;;24.20;53.40;;;;;;5078444;28;20762;-85
2023/06/20 07:14:56;;;;;;;85.53;46.60;;;24.30;55.60;;;;;;5077121;28;20170;-84
2023/06/20 07:17:22;;;;;;;89.47;50.87;;;24.40;60.00;;;;;;5057529;28;20424;-84
2023/06/20 07:19:48;;;;;;;83.07;48.20;;;24.50;59.30;;;;;;5077441;28;20496;-84
2023/06/20 07:22:14;;;;;;;83.13;48.27;;;24.50;56.60;;;;;;5076345;28;20970;-84
2023/06/20 07:24:54;;;;;;;89.67;53.90;;;24.60;55.40;;;;;;5076610;28;20245;-84
2023/06/20 07:27:19;;;;;;;84.80;47.67;;;24.60;56.90;;;;;;5075369;28;20260;-85
2023/06/20 07:29:45;;;;;;;87.97;55.00;;;24.60;57.60;;;;;;5056866;28;20407;-84
2023/06/20 07:32:11;;;;;;;84.33;47.03;;;24.60;64.80;;;;;;5075032;28;20219;-84
2023/06/20 07:34:37;;;;;;;87.27;46.47;;;24.70;66.80;;;;;;5076277;28;20174;-85
2023/06/20 07:37:03;;;;;;;86.93;46.33;;;24.60;56.70;;;;;;5074662;28;20273;-84
2023/06/20 07:39:29;;;;;;;86.23;50.33;;;24.70;60.50;;;;;;5074824;28;20443;-84
2023/06/20 07:41:54;;;;;;;87.47;53.67;;;24.80;54.40;;;;;;5076913;28;20449;-85
2023/06/20 07:44:20;;;;;;;83.27;47.03;;;24.80;51.30;;;;;;5075308;28;20161;-84
2023/06/20 07:46:46;;;;;;;83.57;37.03;;;24.90;51.20;;;;;;5058672;28;20210;-84
2023/06/20 07:49:11;;;;;;;82.87;43.90;;;24.90;39.10;;;;;;5057628;28;20160;-84
2023/06/20 07:51:55;;;;;;;83.90;38.03;;;25.00;44.60;;;;;;5075881;28;20670;-84
2023/06/20 07:54:27;;;;;;;81.50;40.87;;;25.00;38.40;;;;;;5056565;28;20174;-84
2023/06/20 07:57:22;;;;;;;81.97;41.60;;;25.00;37.20;;;;;;5075205;28;20424;-85
2023/06/20 07:59:50;;;;;;;78.70;32.80;;;25.00;39.80;;;;;;5076707;28;20496;-85
2023/06/20 08:02:19;;;;;;;77.83;29.73;;;25.10;37.60;;;;;;5069359;28;20454;-82
2023/06/20 08:04:47;;;;;;;83.60;39.17;;;25.20;31.70;;;;;;5086271;28;20503;-83
2023/06/20 08:07:22;;;;;;;78.23;30.23;;;25.00;32.50;;;;;;5066949;28;20452;-82
2023/06/20 08:09:48;;;;;;;77.73;30.47;;;25.10;26.80;;;;;;5085741;28;20862;-83
2023/06/20 08:12:14;;;;;;;74.63;23.37;;;25.10;30.00;;;;;;5086794;28;20404;-82
2023/06/20 08:14:39;;;;;;;72.90;16.90;;;25.20;27.50;;;;;;5086367;28;20174;-82
2023/06/20 08:17:05;;;;;;;72.10;12.60;;;25.30;24.30;;;;;;5085198;28;20203;-83
2023/06/20 08:19:35;;;;;;;73.53;16.03;;;25.30;14.30;;;;;;5086830;28;20167;-82
2023/06/20 08:22:01;;;;;;;74.57;16.80;;;25.30;17.60;;;;;;5090202;28;20437;-82
2023/06/20 08:24:29;;;;;;;75.23;15.70;;;25.40;20.50;;;;;;5070646;28;20421;-83
2023/06/20 08:26:55;;;;;;;75.23;12.70;;;25.50;13.00;;;;;;5089623;28;20212;-82
2023/06/20 08:29:24;;;;;;;72.77;13.07;;;25.60;14.00;;;;;;5089259;28;20959;-82
2023/06/20 08:31:50;;;;;;;72.90;13.50;;;25.60;11.90;;;;;;5071635;28;20193;-83
2023/06/20 08:34:15;;;;;;;72.20;13.73;;;25.60;11.00;;;;;;5090766;28;20406;-83
2023/06/20 08:36:43;;;;;;;72.80;13.93;;;25.60;8.70;;;;;;5088419;28;20219;-82
2023/06/20 08:39:09;;;;;;;73.17;14.10;;;25.60;9.60;;;;;;5072537;28;20171;-82
2023/06/20 08:41:34;;;;;;;72.17;12.07;;;25.70;11.70;;;;;;5089624;28;20527;-83
2023/06/20 08:44:00;;;;;;;73.50;16.80;;;25.80;7.20;;;;;;5088299;28;20164;-83
2023/06/20 08:46:29;;;;;;;73.30;14.30;;;25.90;12.30;;;;;;5084467;28;20170;-82
2023/06/20 08:48:57;;;;;;;73.30;17.70;;;26.10;5.70;;;;;;5082492;28;20550;-82
2023/06/20 08:51:23;;;;;;;73.93;14.87;;;26.30;6.80;;;;;;5061865;28;20510;-82
2023/06/20 08:53:49;;;;;;;72.60;13.07;;;26.40;2.30;;;;;;5080334;28;20398;-82
2023/06/20 08:56:17;;;;;;;77.03;15.77;;;26.60;1.00;;;;;;5080194;28;20421;-82
2023/06/20 08:58:43;;;;;;;74.00;14.60;;;26.80;1.00;;;;;;5079930;28;20422;-82
2023/06/20 09:01:09;;;;;;;72.57;13.20;;;27.00;1.00;;;;;;5079459;28;20398;-82
2023/06/20 09:03:35;;;;;;;75.43;15.70;;;27.10;1.00;;;;;;5079188;28;20184;-82
2023/06/20 09:06:05;;;;;;;74.53;14.47;;;27.20;1.00;;;;;;5080042;28;20164;-82
2023/06/20 09:08:39;;;;;;;73.17;16.93;;;27.30;1.00;;;;;;5062416;28;20422;-84
2023/06/20 09:11:11;;;;;;;75.30;16.20;;;27.30;1.00;;;;;;5077561;28;20394;-84
2023/06/20 09:13:40;;;;;;;74.80;16.93;;;27.30;1.00;;;;;;5077842;28;20965;-84
2023/06/20 09:16:12;;;;;;;74.37;14.90;;;27.40;1.00;;;;;;5077424;28;20381;-84
2023/06/20 09:18:40;;;;;;;74.13;15.00;;;27.50;1.00;;;;;;5076790;28;20514;-84
2023/06/20 09:21:35;;;;;;;74.07;13.57;;;27.60;1.00;;;;;;5058598;28;20438;-84
2023/06/20 09:24:37;;;;;;;74.73;13.80;;;27.70;1.00;;;;;;5058686;28;20398;-84
2023/06/20 09:27:41;;;;;;;74.33;11.87;;;27.80;1.00;;;;;;5077237;28;20516;-84
2023/06/20 09:31:17;;;;;;;;;;;;;;;;;;;;;
2023/06/20 09:34:40;;;;;;;71.40;8.50;;;28.20;1.00;;;;;;5083530;28;20465;-85
2023/06/20 09:37:11;;;;;;;71.00;8.83;;;28.30;1.00;;;;;;5062367;28;20426;-84
2023/06/20 09:40:08;;;;;;;71.20;7.70;;;28.40;1.00;;;;;;5080863;28;20769;-85
2023/06/20 09:42:34;;;;;;;72.90;8.17;;;28.50;1.00;;;;;;5063858;28;20852;-84
2023/06/20 09:45:03;;;;;;;70.30;7.67;;;28.60;1.00;;;;;;5064526;28;20410;-84
2023/06/20 09:47:29;;;;;;;71.00;8.27;;;28.60;1.00;;;;;;5080586;28;20952;-84
2023/06/20 09:49:58;;;;;;;71.37;8.37;;;28.60;1.00;;;;;;5079904;28;20402;-85
2023/06/20 09:52:53;;;;;;;71.47;8.77;;;28.70;1.00;;;;;;5063905;28;20505;-84
2023/06/20 09:55:21;;;;;;;71.97;9.60;;;29.00;1.00;;;;;;5062572;28;20411;-84
2023/06/20 09:57:49;;;;;;;71.70;8.83;;;29.10;1.00;;;;;;5080070;28;20422;-84
2023/06/20 10:00:17;;;;;;;74.30;8.93;;;29.30;1.00;;;;;;5087497;28;20402;-81
2023/06/20 10:02:47;;;;;;;70.97;9.40;;;29.40;1.00;;;;;;5086157;28;20540;-82
2023/06/20 10:05:17;;;;;;;70.80;8.43;;;29.10;1.00;;;;;;5251353;22;20531;-78
2023/06/20 10:07:45;;;;;;;70.77;8.70;;;28.80;1.00;;;;;;5077176;28;20426;-78
2023/06/20 10:10:12;;;;;;;73.63;10.10;;;28.90;1.00;;;;;;5077498;28;20393;-78
2023/06/20 10:12:39;;;;;;;71.20;7.20;;;29.30;1.00;;;;;;5077829;28;20447;-77
2023/06/20 10:15:09;;;;;;;71.10;9.57;;;29.60;1.00;;;;;;5059424;28;20411;-78
2023/06/20 10:17:40;;;;;;;71.27;7.40;;;29.80;1.00;;;;;;5077483;28;20423;-77
2023/06/20 10:20:07;;;;;;;70.57;7.40;;;30.10;1.00;;;;;;5077605;28;20437;-78
2023/06/20 10:22:43;;;;;;;70.60;5.60;;;30.20;1.00;;;;;;5077007;28;20950;-77
2023/06/20 10:25:14;;;;;;;71.00;6.53;;;30.40;1.00;;;;;;5059215;28;20505;-77
2023/06/20 10:28:00;;;;;;;70.50;5.87;;;30.20;1.00;;;;;;5076975;28;20424;-78
2023/06/20 10:30:53;;;;;;;70.70;5.50;;;30.20;1.00;;;;;;5077633;28;20440;-77
2023/06/20 10:33:26;;;;;;;74.30;5.17;;;30.40;1.00;;;;;;5059824;28;20906;-78
2023/06/20 10:35:57;;;;;;;73.37;5.00;;;30.60;1.00;;;;;;5078307;28;20429;-78
2023/06/20 10:38:26;;;;;;;69.30;4.47;;;31.00;1.00;;;;;;5059798;28;20430;-77
2023/06/20 10:41:24;;;;;;;71.00;5.03;;;31.30;1.00;;;;;;5077185;28;20403;-77
2023/06/20 10:43:59;;;;;;;71.00;5.13;;;31.20;1.00;;;;;;5076800;28;20755;-78
2023/06/20 10:46:29;;;;;;;71.37;5.77;;;31.50;1.00;;;;;;5077041;28;20402;-78
2023/06/20 10:48:55;;;;;;;70.40;5.33;;;31.70;1.00;;;;;;5077200;28;20917;-78
2023/06/20 10:51:20;;;;;;;70.87;5.80;;;31.80;1.00;;;;;;5077936;28;20397;-78
2023/06/20 10:53:46;;;;;;;73.33;6.27;;;31.60;1.00;;;;;;5079079;28;20215;-79
2023/06/20 10:56:25;;;;;;;71.37;5.47;;;31.50;1.00;;;;;;5078380;28;20164;-79
2023/06/20 10:58:50;;;;;;;71.40;6.50;;;31.60;1.00;;;;;;5078297;28;20547;-78
2023/06/20 11:01:24;;;;;;;72.97;8.50;;;32.10;1.00;;;;;;5078373;28;20444;-79
2023/06/20 11:03:51;;;;;;;71.37;7.97;;;32.30;1.00;;;;;;5078778;28;20195;-79
2023/06/20 11:06:17;;;;;;;71.33;8.60;;;32.30;1.00;;;;;;5078864;28;20410;-79
2023/06/20 11:08:45;;;;;;;72.40;8.50;;;32.10;1.00;;;;;;5078244;28;20454;-79
2023/06/20 11:11:10;;;;;;;72.60;9.30;;;32.00;1.00;;;;;;5078661;28;20403;-78
2023/06/20 11:13:42;;;;;;;71.77;9.70;;;32.00;1.00;;;;;;5060758;28;20405;-79
2023/06/20 11:16:25;;;;;;;72.30;9.33;;;32.10;1.00;;;;;;5078542;28;20227;-79
2023/06/20 11:18:50;;;;;;;73.30;9.67;;;32.20;1.00;;;;;;5078516;28;20450;-79
2023/06/20 11:21:16;;;;;;;71.67;8.80;;;32.40;1.00;;;;;;5078318;28;20434;-79
2023/06/20 11:23:42;;;;;;;76.30;9.13;;;32.20;1.00;;;;;;5079192;28;20164;-79
2023/06/20 11:26:08;;;;;;;73.37;11.43;;;32.30;1.00;;;;;;5078447;28;20299;-79
2023/06/20 11:28:35;;;;;;;79.70;10.17;;;32.00;1.00;;;;;;5078135;28;20254;-79
2023/06/20 11:31:09;;;;;;;73.97;10.50;;;32.00;1.00;;;;;;5059980;28;20163;-78
2023/06/20 11:33:35;;;;;;;72.20;10.10;;;31.90;1.00;;;;;;5078187;28;20377;-79
2023/06/20 11:36:00;;;;;;;72.50;10.50;;;31.90;1.00;;;;;;5077471;28;20405;-79
2023/06/20 11:38:29;;;;;;;72.40;9.67;;;31.80;1.00;;;;;;5076255;28;20187;-78
2023/06/20 11:41:13;;;;;;;71.77;10.17;;;32.10;1.00;;;;;;5059070;28;20163;-78
2023/06/20 11:43:41;;;;;;;71.80;10.00;;;32.20;1.00;;;;;;5077049;28;20407;-77
2023/06/20 11:46:08;;;;;;;73.17;8.70;;;32.30;1.00;;;;;;5077529;28;20505;-78
2023/06/20 11:48:34;;;;;;;71.43;9.47;;;32.40;1.00;;;;;;5077557;28;20921;-79
2023/06/20 11:51:06;;;;;;;71.40;9.07;;;32.50;1.00;;;;;;5077674;28;20449;-78
2023/06/20 11:53:34;;;;;;;76.00;10.10;;;32.50;1.00;;;;;;5076918;28;20434;-78
2023/06/20 11:56:02;;;;;;;72.27;10.27;;;32.30;1.00;;;;;;5081168;28;20824;-78
2023/06/20 11:58:35;;;;;;;72.13;10.67;;;32.40;1.00;;;;;;5081182;28;20429;-78
2023/06/20 12:01:09;;;;;;;75.37;9.13;;;32.50;1.00;;;;;;5081729;28;20386;-78
2023/06/20 12:03:36;;;;;;;73.70;9.00;;;32.60;1.00;;;;;;5082097;28;20877;-78
2023/06/20 12:06:02;;;;;;;72.53;9.87;;;32.90;1.00;;;;;;5081023;28;20414;-78
2023/06/20 12:08:34;;;;;;;72.20;11.30;;;32.90;1.00;;;;;;5080903;28;20937;-78
2023/06/20 12:11:01;;;;;;;71.40;9.27;;;32.70;1.00;;;;;;5080769;28;20398;-78
2023/06/20 12:13:28;;;;;;;71.67;10.40;;;33.00;1.00;;;;;;5080676;28;20769;-77
2023/06/20 12:15:54;;;;;;;73.80;9.17;;;33.30;1.00;;;;;;5080900;28;20395;-78
2023/06/20 12:18:20;;;;;;;70.67;8.40;;;33.60;1.00;;;;;;5080896;28;20414;-78
2023/06/20 12:20:46;;;;;;;71.67;9.20;;;33.60;1.00;;;;;;5081123;28;20394;-79
2023/06/20 12:23:13;;;;;;;70.70;8.17;;;33.10;1.00;;;;;;5062668;28;20481;-78
2023/06/20 12:25:38;;;;;;;72.80;9.47;;;32.80;1.00;;;;;;5080447;28;20818;-78
2023/06/20 12:28:04;;;;;;;71.50;8.57;;;32.70;1.00;;;;;;5080939;28;20425;-78
2023/06/20 12:30:30;;;;;;;70.97;8.90;;;32.40;1.00;;;;;;5080573;28;20168;-79
2023/06/20 12:32:58;;;;;;;76.60;10.17;;;32.40;1.00;;;;;;5081091;28;20176;-78
2023/06/20 12:35:27;;;;;;;73.80;11.23;;;32.10;1.00;;;;;;5080378;28;20398;-78
2023/06/20 12:37:53;;;;;;;71.57;9.50;;;32.10;1.00;;;;;;5080307;28;20426;-78
2023/06/20 12:40:18;;;;;;;72.20;11.00;;;32.00;1.00;;;;;;5080420;28;20406;-78
2023/06/20 12:42:44;;;;;;;73.30;12.00;;;32.10;1.00;;;;;;5080222;28;20383;-78
2023/06/20 12:45:10;;;;;;;72.27;11.37;;;32.00;1.00;;;;;;5080544;28;20159;-77
2023/06/20 12:47:40;;;;;;;71.63;11.40;;;31.90;1.00;;;;;;5080023;28;20281;-79
2023/06/20 12:50:06;;;;;;;72.53;12.50;;;31.90;1.00;;;;;;5079890;28;20416;-78
2023/06/20 12:52:32;;;;;;;76.53;11.60;;;32.00;1.00;;;;;;5080268;28;20438;-78
2023/06/20 12:55:00;;;;;;;72.47;12.20;;;32.00;1.00;;;;;;5080526;28;20413;-78
2023/06/20 12:57:27;;;;;;;73.03;12.87;;;32.00;1.00;;;;;;5061669;28;20209;-78
2023/06/20 12:59:53;;;;;;;73.47;12.53;;;32.10;1.00;;;;;;5079764;28;20410;-78